Brooksville, FL (34601)

5:12 AM EDT on July 24, 2017 (GMT -0400)
Forest Hills - Croom Forest | | Change Station

Elev 61 ft 28.60 °N, 82.33 °W | Updated 37 seconds ago

Partly Cloudy
Partly Cloudy
73.5 °F
Feels Like 73.5 °F
N
0.0
Wind Variable Wind from West

Today
High -- | Low -- °F
--% Chance of Precip.
Yesterday
High -- | Low -- °F
Precip. -- in
Pressure 30.01 in
Visibility 5.0 miles
Clouds Clear
Dew Point 72 °F
Humidity 96%
Rainfall 0.00 in
Snow Depth Not available.
6:46 AM 8:25 PM
New Moon, 1% visible
METAR KBKV 240853Z AUTO 00000KT 5SM BR CLR 23/23 A3001 RMK AO2 SLP160 T02330228 58008
Pressure 30.01 in
Visibility 5.0 miles
Clouds Clear
Dew Point 72 °F
Humidity 96%
Rainfall 0.00 in
Snow Depth Not available.
6:46 AM 8:25 PM
New Moon, 1% visible
METAR KBKV 240853Z AUTO 00000KT 5SM BR CLR 23/23 A3001 RMK AO2 SLP160 T02330228 58008

Get Severe Weather Alerts

Thanks for signing up!

Be on the lookout for a verification email in your inbox.

You'll start receiving the daily forecast at 6 AM.

×

10-Day Weather Forecast

Almanac

Astronomy

Jul. 24, 2017 Rise Set
Actual Time
Civil Twilight
Nautical Twilight
Astronomical Twilight
Moon
Length of Visible Light
Length of Day
Tomorrow will be .
, % of the Moon is Illuminated

Today's Extremes

State Highs State Lows

Community

WunderPhotos

Category 6

Welcome to Category 6. This is the collective home for Weather Underground's featured writeups by Dr. Jeff Masters (right), Bob Henson (left), Chris Burt, and other regular contributors.

Nearby

Air Quality

  Air Quality AQ Index Pollutant
Not available.

Snow Depth

Station Depth Elevation

Earthquake Activity

City Distance Mag. Time & Date
Minimum magnitude displayed is 2.5.

Coastal Water Temperatures

Place Temperature

Stations

Nearby Weather Stations

Station Location Temp. Windchill Dew Point Humidity Wind Precip. Elev Updated Type
                   

Watches & Warnings

There are currently no watches in effect.